createdAt,value
2023-05-25T00:01:31.753Z,28.80
2023-05-25T00:04:00.718Z,28.91
2023-05-25T00:06:30.297Z,28.91
2023-05-25T00:08:59.087Z,28.84
2023-05-25T00:11:27.771Z,28.80
2023-05-25T00:13:56.494Z,28.71
2023-05-25T00:16:24.777Z,29.10
2023-05-25T00:18:57.709Z,28.84
2023-05-25T00:21:26.375Z,28.91
2023-05-25T00:23:55.093Z,28.98
2023-05-25T00:26:23.350Z,28.70
2023-05-25T00:28:51.941Z,29.16
2023-05-25T00:31:20.601Z,28.78
2023-05-25T00:33:50.549Z,28.86
2023-05-25T00:36:20.757Z,28.44
2023-05-25T00:38:49.224Z,28.89
2023-05-25T00:41:18.640Z,28.73
2023-05-25T00:43:47.664Z,28.80
2023-05-25T00:46:17.014Z,28.65
2023-05-25T00:48:47.116Z,28.29
2023-05-25T00:51:15.873Z,28.77
2023-05-25T00:53:45.996Z,28.44
2023-05-25T00:56:16.349Z,28.18
2023-05-25T00:58:46.227Z,28.42
2023-05-25T01:01:15.396Z,28.34
2023-05-25T01:03:46.910Z,28.51
2023-05-25T01:06:17.190Z,27.17
2023-05-25T01:09:00.399Z,27.98
2023-05-25T01:11:30.645Z,28.41
2023-05-25T01:13:59.785Z,28.60
2023-05-25T01:16:28.161Z,28.80
2023-05-25T01:18:58.429Z,28.71
2023-05-25T01:21:31.987Z,28.12
2023-05-25T01:24:04.774Z,28.30
2023-05-25T01:26:36.447Z,28.15
2023-05-25T01:29:06.164Z,28.43
2023-05-25T01:31:36.226Z,28.55
2023-05-25T01:34:06.130Z,28.52
2023-05-25T01:36:35.771Z,28.80
2023-05-25T01:39:06.889Z,28.36
2023-05-25T01:41:35.267Z,28.71
2023-05-25T01:44:04.015Z,28.63
2023-05-25T01:46:35.785Z,28.48
2023-05-25T01:49:14.222Z,28.49
2023-05-25T01:51:49.634Z,28.56
2023-05-25T01:54:20.799Z,28.45
2023-05-25T01:56:51.132Z,28.51
2023-05-25T01:59:22.198Z,28.54
2023-05-25T02:01:52.950Z,28.88
2023-05-25T02:04:23.012Z,28.92
2023-05-25T02:06:54.124Z,28.41
2023-05-25T02:09:22.885Z,28.79
2023-05-25T02:11:51.249Z,28.92
2023-05-25T02:14:19.861Z,28.73
2023-05-25T02:16:48.520Z,28.66
2023-05-25T02:19:17.075Z,28.98
2023-05-25T02:21:47.517Z,28.73
2023-05-25T02:24:18.580Z,28.32
2023-05-25T02:26:47.032Z,28.94
2023-05-25T02:29:15.716Z,28.87
2023-05-25T02:31:44.148Z,28.99
2023-05-25T02:34:14.022Z,29.09
2023-05-25T02:36:43.474Z,29.37
2023-05-25T02:39:12.015Z,29.63
2023-05-25T02:41:41.834Z,28.94
2023-05-25T02:44:10.383Z,29.27
2023-05-25T02:46:38.845Z,29.22
2023-05-25T02:49:07.368Z,29.09
2023-05-25T02:51:36.074Z,29.47
2023-05-25T02:54:05.350Z,29.06
2023-05-25T02:56:33.817Z,29.00
2023-05-25T02:59:03.817Z,28.62
2023-05-25T03:01:32.409Z,29.00
2023-05-25T03:04:01.171Z,28.90
2023-05-25T03:06:30.035Z,28.74
2023-05-25T03:08:58.542Z,28.90
2023-05-25T03:11:27.032Z,28.92
2023-05-25T03:13:55.448Z,28.98
2023-05-25T03:16:26.152Z,28.55
2023-05-25T03:18:55.010Z,28.90
2023-05-25T03:21:23.808Z,28.88
2023-05-25T03:23:52.277Z,28.88
2023-05-25T03:26:21.228Z,29.01
2023-05-25T03:28:49.657Z,28.86
2023-05-25T03:31:18.127Z,29.01
2023-05-25T03:33:47.951Z,28.65
2023-05-25T03:36:17.639Z,29.10
2023-05-25T03:38:46.293Z,29.14
2023-05-25T03:41:14.481Z,28.75
2023-05-25T03:43:42.947Z,29.04
2023-05-25T03:46:11.791Z,28.60
2023-05-25T03:48:40.562Z,28.95
2023-05-25T03:51:10.101Z,28.91
2023-05-25T03:53:38.822Z,28.94
2023-05-25T03:56:08.225Z,28.90
2023-05-25T03:58:37.296Z,29.32
2023-05-25T04:01:05.779Z,29.04
2023-05-25T04:03:34.884Z,28.93
2023-05-25T04:06:04.151Z,28.95
2023-05-25T04:08:34.196Z,28.90
2023-05-25T04:11:02.506Z,28.96
2023-05-25T04:13:31.583Z,29.28
2023-05-25T04:15:59.921Z,29.01
2023-05-25T04:18:28.597Z,29.09
2023-05-25T04:20:57.617Z,28.85
2023-05-25T04:23:26.214Z,28.89
2023-05-25T04:25:56.336Z,28.79
2023-05-25T04:28:24.985Z,28.73
2023-05-25T04:30:57.416Z,28.94
2023-05-25T04:33:29.863Z,28.95
2023-05-25T04:35:59.829Z,28.75
2023-05-25T04:38:28.342Z,28.86
2023-05-25T04:40:58.904Z,29.00
2023-05-25T04:43:27.889Z,29.42
2023-05-25T04:45:56.880Z,29.47
2023-05-25T04:48:25.820Z,29.34
2023-05-25T04:50:55.839Z,29.41
2023-05-25T04:53:24.614Z,29.17
2023-05-25T04:55:54.846Z,29.04
2023-05-25T04:58:25.262Z,28.50
2023-05-25T05:00:53.621Z,28.99
2023-05-25T05:03:22.615Z,29.01
2023-05-25T05:05:51.052Z,28.95
2023-05-25T05:08:19.740Z,28.58
2023-05-25T05:10:48.126Z,29.00
2023-05-25T05:13:17.537Z,28.86
2023-05-25T05:15:48.807Z,28.40
2023-05-25T05:18:17.375Z,28.92
2023-05-25T05:20:46.460Z,28.38
2023-05-25T05:23:15.276Z,29.02
2023-05-25T05:25:43.887Z,28.67
2023-05-25T05:28:12.894Z,28.75
2023-05-25T05:30:41.298Z,28.48
2023-05-25T05:33:11.523Z,28.11
2023-05-25T05:35:39.835Z,28.14
2023-05-25T05:38:09.796Z,28.28
2023-05-25T05:40:38.332Z,28.11
2023-05-25T05:43:06.976Z,28.19
2023-05-25T05:45:35.566Z,28.31
2023-05-25T05:48:04.778Z,28.79
2023-05-25T05:50:34.490Z,28.38
2023-05-25T05:53:03.398Z,28.01
2023-05-25T05:55:31.743Z,28.12
2023-05-25T05:58:00.727Z,28.10
2023-05-25T06:00:29.205Z,28.06
2023-05-25T06:02:58.107Z,27.66
2023-05-25T06:05:27.105Z,27.43
2023-05-25T06:07:57.154Z,27.62
2023-05-25T06:10:25.594Z,27.24
2023-05-25T06:12:54.350Z,27.44
2023-05-25T06:15:22.682Z,27.38
2023-05-25T06:17:51.213Z,27.26
2023-05-25T06:20:19.532Z,27.17
2023-05-25T06:22:52.593Z,26.81
2023-05-25T06:25:22.451Z,25.60
2023-05-25T06:27:51.058Z,26.98
2023-05-25T06:30:19.428Z,26.71
2023-05-25T06:32:48.584Z,27.20
2023-05-25T06:35:20.087Z,27.22
2023-05-25T06:37:49.481Z,26.71
2023-05-25T06:40:18.176Z,26.48
2023-05-25T06:42:48.222Z,26.62
2023-05-25T06:45:16.828Z,26.88
2023-05-25T06:47:45.821Z,26.97
2023-05-25T06:50:14.261Z,26.96
2023-05-25T06:52:42.959Z,26.79
2023-05-25T06:55:11.902Z,27.18
2023-05-25T06:57:41.607Z,26.86
2023-05-25T07:00:13.250Z,26.39
2023-05-25T07:02:42.191Z,27.12
2023-05-25T07:05:11.542Z,26.81
2023-05-25T07:07:40.116Z,26.81
2023-05-25T07:10:10.327Z,26.26
2023-05-25T07:12:39.227Z,26.85
2023-05-25T07:15:08.750Z,26.53
2023-05-25T07:17:39.169Z,26.31
2023-05-25T07:20:09.070Z,26.54
2023-05-25T07:22:38.042Z,26.42
2023-05-25T07:25:07.658Z,26.63
2023-05-25T07:27:36.384Z,26.31
2023-05-25T07:30:05.370Z,26.20
2023-05-25T07:32:34.084Z,26.62
2023-05-25T07:35:04.198Z,26.32
2023-05-25T07:37:32.865Z,26.56
2023-05-25T07:40:01.685Z,26.44
2023-05-25T07:42:34.408Z,26.23
2023-05-25T07:45:02.818Z,26.58
2023-05-25T07:47:31.809Z,25.95
2023-05-25T07:50:00.178Z,26.26
2023-05-25T07:52:30.415Z,25.58
2023-05-25T07:54:58.846Z,26.05
2023-05-25T07:57:27.419Z,25.88
2023-05-25T07:59:55.678Z,25.81
2023-05-25T08:02:24.388Z,25.19
2023-05-25T08:04:53.341Z,25.39
2023-05-25T08:07:22.157Z,25.46
2023-05-25T08:09:51.945Z,24.82
2023-05-25T08:14:52.127Z,25.50
2023-05-25T08:17:21.134Z,25.26
2023-05-25T08:19:49.757Z,24.76
2023-05-25T08:22:18.540Z,24.92
2023-05-25T08:24:46.983Z,25.08
2023-05-25T08:27:17.346Z,24.58
2023-05-25T08:29:45.721Z,24.65
2023-05-25T08:32:14.348Z,24.71
2023-05-25T08:34:42.497Z,24.83
2023-05-25T08:37:11.938Z,24.94
2023-05-25T08:39:40.467Z,24.81
2023-05-25T08:42:09.270Z,24.97
2023-05-25T08:44:40.217Z,24.24
2023-05-25T08:47:08.604Z,23.18
2023-05-25T08:49:39.513Z,24.00
2023-05-25T08:52:12.422Z,23.83
2023-05-25T08:54:45.358Z,23.33
2023-05-25T08:57:16.887Z,23.23
2023-05-25T08:59:48.869Z,22.24
2023-05-25T09:02:23.858Z,22.78
2023-05-25T09:04:52.512Z,23.26
2023-05-25T09:07:21.858Z,23.34
2023-05-25T09:09:50.742Z,23.34
2023-05-25T09:12:20.220Z,23.37
2023-05-25T09:14:50.116Z,23.04
2023-05-25T09:17:20.257Z,23.19
2023-05-25T09:19:48.809Z,23.73
2023-05-25T09:22:17.550Z,23.43
2023-05-25T09:24:46.238Z,23.52
2023-05-25T09:27:19.330Z,23.18
2023-05-25T09:29:50.713Z,23.15
2023-05-25T09:32:20.117Z,23.82
2023-05-25T09:34:48.927Z,24.17
2023-05-25T09:37:20.247Z,23.95
2023-05-25T09:39:49.221Z,24.08
2023-05-25T09:42:18.015Z,23.94
2023-05-25T09:44:46.509Z,24.14
2023-05-25T09:47:18.013Z,24.22
2023-05-25T09:49:49.525Z,24.39
2023-05-25T09:52:18.291Z,24.22
2023-05-25T09:54:47.430Z,23.76
2023-05-25T09:57:16.369Z,23.24
2023-05-25T09:59:45.532Z,23.35
2023-05-25T10:02:14.401Z,23.22
2023-05-25T10:04:44.138Z,22.96
2023-05-25T10:07:16.056Z,23.09
2023-05-25T10:09:47.643Z,23.14
2023-05-25T10:12:19.723Z,23.37
2023-05-25T10:14:50.771Z,23.21
2023-05-25T10:17:23.125Z,23.26
2023-05-25T10:19:57.041Z,22.84
2023-05-25T10:22:29.071Z,23.34
2023-05-25T10:25:03.553Z,22.88
2023-05-25T10:27:36.125Z,22.27
2023-05-25T10:30:04.731Z,23.02
2023-05-25T10:32:34.868Z,22.82
2023-05-25T10:35:05.442Z,22.46
2023-05-25T10:37:35.202Z,22.51
2023-05-25T10:40:03.818Z,22.72
2023-05-25T10:42:34.489Z,22.20
2023-05-25T10:45:03.448Z,22.05
2023-05-25T10:47:32.319Z,22.15
2023-05-25T10:50:03.245Z,22.19
2023-05-25T10:52:34.072Z,21.80
2023-05-25T10:55:05.395Z,22.12
2023-05-25T10:57:34.340Z,21.79
2023-05-25T11:00:06.667Z,21.41
2023-05-25T11:02:54.033Z,20.80
2023-05-25T11:05:36.845Z,20.92
2023-05-25T11:08:08.760Z,21.07
2023-05-25T11:10:56.730Z,21.12
2023-05-25T11:13:35.553Z,21.32
2023-05-25T11:16:19.146Z,20.97
2023-05-25T11:18:51.661Z,21.17
2023-05-25T11:21:40.926Z,20.87
2023-05-25T11:24:16.283Z,20.40
2023-05-25T11:26:59.224Z,20.40
2023-05-25T11:29:32.260Z,20.59
2023-05-25T11:32:01.545Z,20.92
2023-05-25T11:34:32.215Z,21.04
2023-05-25T11:37:04.048Z,21.09
2023-05-25T11:39:34.256Z,20.72
2023-05-25T11:42:07.110Z,20.55
2023-05-25T11:44:39.116Z,20.78
2023-05-25T11:47:10.290Z,21.02
2023-05-25T11:49:41.968Z,21.34
2023-05-25T11:52:10.722Z,21.66
2023-05-25T11:54:42.055Z,21.42
2023-05-25T11:57:15.759Z,21.60
2023-05-25T11:59:50.299Z,21.75
2023-05-25T12:02:18.900Z,21.96
2023-05-25T12:04:55.577Z,21.56
2023-05-25T12:07:24.776Z,21.68
2023-05-25T12:10:06.246Z,21.02
2023-05-25T12:12:42.674Z,21.20
2023-05-25T12:15:12.986Z,21.16
2023-05-25T12:17:44.401Z,21.03
2023-05-25T12:20:15.619Z,21.18
2023-05-25T12:22:45.252Z,20.86
2023-05-25T12:25:16.847Z,20.31
2023-05-25T12:27:45.151Z,19.38
2023-05-25T12:30:16.380Z,20.25
2023-05-25T12:33:03.768Z,20.01
2023-05-25T12:35:46.295Z,20.45
2023-05-25T12:38:15.679Z,21.00
2023-05-25T12:40:46.322Z,20.72
2023-05-25T12:43:17.092Z,20.60
2023-05-25T12:45:46.498Z,20.69
2023-05-25T12:48:15.129Z,20.61
2023-05-25T12:50:59.268Z,19.98
2023-05-25T12:53:29.251Z,20.83
2023-05-25T12:56:06.617Z,20.60
2023-05-25T12:58:35.157Z,21.55
2023-05-25T13:01:04.202Z,21.24
2023-05-25T13:03:32.537Z,21.36
2023-05-25T13:06:02.653Z,21.30
2023-05-25T13:08:31.154Z,21.48
2023-05-25T13:11:00.323Z,21.87
2023-05-25T13:13:30.472Z,21.77
2023-05-25T13:15:59.429Z,21.83
2023-05-25T13:18:27.989Z,22.16
2023-05-25T13:20:57.485Z,22.16
2023-05-25T13:23:26.570Z,22.12
2023-05-25T13:25:55.156Z,22.44
2023-05-25T13:28:24.035Z,22.48
2023-05-25T13:30:54.248Z,22.14
2023-05-25T13:33:22.736Z,22.56
2023-05-25T13:35:59.300Z,22.58
2023-05-25T13:38:29.675Z,22.39
2023-05-25T13:40:58.663Z,22.75
2023-05-25T13:43:27.121Z,22.52
2023-05-25T13:45:59.202Z,22.21
2023-05-25T13:48:27.797Z,22.76
2023-05-25T13:50:56.814Z,23.01
2023-05-25T13:53:25.258Z,23.01
2023-05-25T13:55:54.469Z,23.20
2023-05-25T13:58:24.996Z,23.29
2023-05-25T14:00:53.973Z,23.26
2023-05-25T14:03:23.855Z,23.44
2023-05-25T14:05:54.111Z,23.68
2023-05-25T14:08:23.081Z,23.59
2023-05-25T14:10:51.783Z,23.58
2023-05-25T14:13:20.301Z,23.65
2023-05-25T14:15:49.378Z,23.35
2023-05-25T14:18:17.697Z,23.82
2023-05-25T14:20:48.161Z,23.42
2023-05-25T14:23:19.412Z,23.55
2023-05-25T14:25:49.905Z,23.66
2023-05-25T14:28:18.258Z,23.34
2023-05-25T14:30:46.897Z,23.81
2023-05-25T14:33:17.553Z,23.57
2023-05-25T14:35:47.888Z,23.59
2023-05-25T14:38:16.556Z,23.82
2023-05-25T14:40:45.755Z,23.70
2023-05-25T14:43:14.189Z,23.77
2023-05-25T14:45:43.054Z,24.32
2023-05-25T14:48:16.779Z,23.95
2023-05-25T14:50:47.298Z,23.75
2023-05-25T14:53:16.259Z,24.55
2023-05-25T14:55:45.300Z,24.77
2023-05-25T14:58:13.938Z,24.95
2023-05-25T15:00:42.754Z,24.69
2023-05-25T15:03:11.193Z,24.80
2023-05-25T15:05:40.038Z,24.65
2023-05-25T15:08:09.884Z,24.38
2023-05-25T15:10:38.899Z,24.88
2023-05-25T15:13:07.466Z,24.55
2023-05-25T15:15:36.437Z,24.27
2023-05-25T15:18:05.248Z,24.69
2023-05-25T15:20:34.115Z,24.75
2023-05-25T15:23:03.340Z,24.97
2023-05-25T15:25:35.649Z,24.44
2023-05-25T15:28:05.087Z,24.50
2023-05-25T15:30:34.584Z,24.77
2023-05-25T15:33:03.546Z,24.46
2023-05-25T15:35:35.599Z,24.71
2023-05-25T15:38:04.726Z,24.85
2023-05-25T15:40:37.361Z,24.42
2023-05-25T15:43:05.561Z,24.82
2023-05-25T15:45:34.483Z,24.97
2023-05-25T15:48:04.150Z,24.69
2023-05-25T15:50:33.176Z,24.76
2023-05-25T15:53:01.819Z,24.63
2023-05-25T15:55:30.460Z,24.87
2023-05-25T15:58:00.545Z,24.35
2023-05-25T16:00:29.317Z,24.64
2023-05-25T16:02:58.395Z,24.38
2023-05-25T16:05:30.340Z,24.40
2023-05-25T16:07:58.635Z,22.78
2023-05-25T16:10:27.686Z,24.16
2023-05-25T16:12:56.315Z,24.17
2023-05-25T16:15:26.873Z,23.89
2023-05-25T16:17:55.561Z,24.18
2023-05-25T16:20:24.234Z,24.03
2023-05-25T16:22:52.710Z,24.19
2023-05-25T16:25:21.707Z,24.16
2023-05-25T16:27:50.259Z,24.20
2023-05-25T16:30:18.913Z,24.06
2023-05-25T16:32:49.100Z,23.77
2023-05-25T16:35:18.035Z,24.31
2023-05-25T16:37:46.521Z,24.28
2023-05-25T16:40:15.886Z,24.20
2023-05-25T16:42:44.429Z,24.38
2023-05-25T16:45:13.608Z,24.53
2023-05-25T16:47:42.249Z,24.26
2023-05-25T16:50:15.572Z,24.43
2023-05-25T16:52:44.093Z,24.52
2023-05-25T16:55:14.888Z,24.41
2023-05-25T16:57:45.189Z,24.86
2023-05-25T17:00:15.212Z,24.59
2023-05-25T17:02:43.726Z,24.82
2023-05-25T17:05:12.564Z,24.94
2023-05-25T17:07:42.692Z,24.82
2023-05-25T17:10:12.307Z,24.83
2023-05-25T17:12:40.949Z,25.00
2023-05-25T17:15:11.355Z,25.05
2023-05-25T17:17:39.863Z,25.11
2023-05-25T17:20:10.848Z,25.19
2023-05-25T17:22:39.776Z,25.25
2023-05-25T17:25:11.411Z,25.33
2023-05-25T17:27:40.167Z,25.71
2023-05-25T17:30:10.477Z,25.49
2023-05-25T17:32:40.179Z,25.64
2023-05-25T17:35:09.545Z,25.95
2023-05-25T17:37:38.204Z,26.30
2023-05-25T17:40:10.030Z,26.05
2023-05-25T17:42:40.797Z,26.46
2023-05-25T17:45:11.863Z,26.39
2023-05-25T17:47:40.473Z,26.69
2023-05-25T17:50:09.964Z,26.89
2023-05-25T17:52:38.609Z,27.45
2023-05-25T17:55:09.910Z,27.22
2023-05-25T17:57:38.228Z,27.48
2023-05-25T18:00:08.873Z,27.22
2023-05-25T18:02:37.610Z,27.36
2023-05-25T18:05:07.669Z,27.66
2023-05-25T18:07:36.161Z,27.39
2023-05-25T18:10:05.356Z,27.52
2023-05-25T18:12:35.271Z,27.58
2023-05-25T18:15:04.073Z,27.76
2023-05-25T18:17:32.614Z,27.77
2023-05-25T18:20:01.570Z,27.98
2023-05-25T18:22:30.150Z,27.79
2023-05-25T18:24:58.863Z,28.37
2023-05-25T18:27:27.298Z,28.07
2023-05-25T18:29:58.228Z,28.12
2023-05-25T18:32:26.702Z,28.07
2023-05-25T18:34:57.169Z,28.33
2023-05-25T18:37:26.723Z,28.42
2023-05-25T18:39:55.459Z,28.39
2023-05-25T18:42:24.012Z,28.71
2023-05-25T18:44:52.867Z,28.55
2023-05-25T18:47:23.933Z,28.58
2023-05-25T18:49:53.049Z,28.76
2023-05-25T18:52:22.524Z,28.65
2023-05-25T18:54:51.423Z,29.17
2023-05-25T18:57:20.162Z,29.14
2023-05-25T18:59:49.200Z,28.87
2023-05-25T19:02:18.295Z,28.19
2023-05-25T19:04:50.599Z,28.25
2023-05-25T19:07:19.137Z,28.31
2023-05-25T19:09:48.313Z,28.37
2023-05-25T19:12:16.595Z,28.68
2023-05-25T19:14:45.187Z,28.77
2023-05-25T19:17:14.550Z,28.68
2023-05-25T19:19:43.082Z,28.95
2023-05-25T19:22:13.023Z,28.65
2023-05-25T19:24:43.029Z,29.30
2023-05-25T19:27:15.322Z,29.14
2023-05-25T19:29:45.806Z,29.15
2023-05-25T19:32:15.155Z,29.18
2023-05-25T19:34:46.884Z,29.59
2023-05-25T19:37:16.536Z,29.41
2023-05-25T19:39:45.822Z,29.92
2023-05-25T19:42:14.213Z,30.12
2023-05-25T19:44:42.932Z,29.91
2023-05-25T19:47:11.266Z,30.05
2023-05-25T19:49:40.018Z,30.39
2023-05-25T19:52:08.544Z,30.29
2023-05-25T19:54:39.391Z,30.40
2023-05-25T19:57:07.854Z,30.57
2023-05-25T19:59:37.669Z,30.68
2023-05-25T20:02:06.508Z,30.74
2023-05-25T20:04:35.317Z,30.69
2023-05-25T20:07:03.704Z,30.88
2023-05-25T20:09:32.483Z,30.52
2023-05-25T20:12:02.660Z,30.28
2023-05-25T20:14:31.395Z,30.92
2023-05-25T20:16:59.825Z,30.88
2023-05-25T20:19:28.527Z,30.88
2023-05-25T20:21:57.920Z,30.83
2023-05-25T20:24:26.816Z,31.00
2023-05-25T20:26:56.907Z,31.07
2023-05-25T20:29:27.624Z,30.63
2023-05-25T20:31:55.977Z,31.00
2023-05-25T20:34:24.681Z,30.82
2023-05-25T20:36:53.660Z,30.70
2023-05-25T20:39:22.228Z,31.01
2023-05-25T20:41:50.727Z,30.54
2023-05-25T20:44:19.360Z,30.66
2023-05-25T20:46:49.062Z,30.21
2023-05-25T20:49:17.678Z,30.63
2023-05-25T20:51:50.072Z,30.74
2023-05-25T20:54:18.924Z,30.36
2023-05-25T20:56:51.161Z,30.74
2023-05-25T20:59:19.726Z,30.57
2023-05-25T21:01:49.397Z,30.11
2023-05-25T21:04:18.106Z,30.58
2023-05-25T21:06:46.888Z,30.62
2023-05-25T21:09:15.560Z,30.70
2023-05-25T21:11:43.971Z,30.52
2023-05-25T21:14:12.716Z,30.68
2023-05-25T21:16:41.188Z,30.37
2023-05-25T21:19:11.638Z,30.31
2023-05-25T21:21:40.223Z,30.33
2023-05-25T21:24:09.252Z,30.20
2023-05-25T21:26:37.646Z,30.49
2023-05-25T21:29:07.958Z,30.47
2023-05-25T21:31:36.408Z,30.42
2023-05-25T21:34:05.549Z,30.59
2023-05-25T21:36:36.389Z,30.34
2023-05-25T21:39:05.443Z,30.66
2023-05-25T21:41:33.838Z,30.36
2023-05-25T21:44:02.539Z,30.25
2023-05-25T21:46:31.076Z,30.76
2023-05-25T21:49:00.769Z,30.24
2023-05-25T21:51:30.099Z,30.66
2023-05-25T21:54:00.607Z,29.98
2023-05-25T21:56:29.102Z,30.58
2023-05-25T21:58:57.754Z,30.30
2023-05-25T22:01:26.284Z,30.33
2023-05-25T22:03:54.948Z,30.32
2023-05-25T22:06:24.420Z,29.99
2023-05-25T22:08:53.142Z,30.40
2023-05-25T22:11:24.594Z,30.65
2023-05-25T22:13:53.573Z,30.39
2023-05-25T22:16:22.298Z,30.74
2023-05-25T22:18:51.091Z,30.29
2023-05-25T22:21:19.368Z,30.29
2023-05-25T22:23:48.130Z,30.69
2023-05-25T22:26:16.409Z,30.74
2023-05-25T22:28:46.481Z,30.37
2023-05-25T22:31:14.940Z,30.63
2023-05-25T22:33:46.762Z,30.33
2023-05-25T22:36:16.389Z,30.80
2023-05-25T22:38:44.878Z,30.84
2023-05-25T22:41:13.660Z,30.62
2023-05-25T22:43:42.427Z,30.36
2023-05-25T22:46:12.192Z,30.32
2023-05-25T22:48:41.255Z,30.44
2023-05-25T22:51:09.540Z,30.37
2023-05-25T22:53:38.542Z,30.70
2023-05-25T22:56:07.040Z,30.19
2023-05-25T22:58:35.880Z,30.66
2023-05-25T23:01:04.248Z,30.62
2023-05-25T23:03:34.471Z,30.18
2023-05-25T23:06:03.070Z,30.41
2023-05-25T23:08:32.013Z,30.14
2023-05-25T23:11:00.275Z,30.39
2023-05-25T23:13:29.592Z,30.49
2023-05-25T23:15:57.981Z,30.34
2023-05-25T23:18:26.910Z,30.30
2023-05-25T23:20:56.830Z,30.02
2023-05-25T23:23:25.381Z,30.36
2023-05-25T23:25:54.360Z,30.14
2023-05-25T23:28:23.049Z,30.19
2023-05-25T23:30:51.981Z,30.30
2023-05-25T23:33:20.451Z,30.55
2023-05-25T23:35:49.121Z,30.40
2023-05-25T23:38:19.550Z,30.01
2023-05-25T23:40:47.874Z,30.09
2023-05-25T23:43:17.334Z,30.13
2023-05-25T23:45:45.876Z,30.55
2023-05-25T23:48:14.855Z,30.73
2023-05-25T23:50:43.124Z,30.21
2023-05-25T23:53:11.987Z,30.19
2023-05-25T23:55:42.033Z,29.92
2023-05-25T23:58:10.539Z,30.47
